Portada
METAR-TAF:

METAR-TAF

Aeroports :

Shillong, Índia

latitud: 25-42-13N, longitud: 091-58-43E, altitud: 887 m

Observació

L'informe es va fer fa 6 hores i 22 minuts, a les 10:30 UTC
Vent 3 kt del Nord/Nord-Oest
Temperatura 26°C
Humitat 89%
Pressió 999 hPa
Visibilitat: 3000 m
Escasses núvols a una alçada de 1000 ft
Núvols disperses a una alçada de 2000 ft
Núvols disperses a una alçada de 8000 ft
boirina,

METAR: VEBI 251030Z 33003KT 3000 BR FEW010 SCT020 SCT080 26/24 Q0999 NOSIG

Hora: 22:22 (16:52 UTC)


TAF: manca

Observacions i pronòstics meteorològics de més de 4000 aeroports (METAR i TAF).

Les estacions disponibles són els punts grocs i vermells al mapa.

Posi el ratolí al punt desitjat per veure el nom de l'estació.

Feu clic per veure les observacions i els pronòstics meteorològics.

Per canviar el mapa: feu clic els botons verds amb una creu de color negre per apropar; al botó verd amb un guió per allunyar la imatge; o en les fletxes verdes per a mapes adjacents.


METAR-TAF: